sensor_id;sensor_type;location;lat;lon;timestamp;P1;durP1;ratioP1;P2;durP2;ratioP2
42866;SDS011;39461;40.948;73.006;2023-04-24T00:01:06;3.15;;;1.48;;
42866;SDS011;39461;40.948;73.006;2023-04-24T00:03:42;6.15;;;1.48;;
42866;SDS011;39461;40.948;73.006;2023-04-24T00:06:15;4.32;;;1.30;;
42866;SDS011;39461;40.948;73.006;2023-04-24T00:08:48;3.83;;;1.42;;
42866;SDS011;39461;40.948;73.006;2023-04-24T00:11:21;7.80;;;1.38;;
42866;SDS011;39461;40.948;73.006;2023-04-24T00:13:54;3.78;;;1.35;;
42866;SDS011;39461;40.948;73.006;2023-04-24T00:16:28;5.75;;;1.48;;
42866;SDS011;39461;40.948;73.006;2023-04-24T00:19:07;3.95;;;1.50;;
42866;SDS011;39461;40.948;73.006;2023-04-24T00:21:41;3.15;;;1.38;;
42866;SDS011;39461;40.948;73.006;2023-04-24T00:24:14;3.55;;;1.40;;
42866;SDS011;39461;40.948;73.006;2023-04-24T00:26:47;4.15;;;1.50;;
42866;SDS011;39461;40.948;73.006;2023-04-24T00:29:20;4.28;;;1.42;;
42866;SDS011;39461;40.948;73.006;2023-04-24T00:31:53;6.20;;;1.88;;
42866;SDS011;39461;40.948;73.006;2023-04-24T00:34:28;4.82;;;1.20;;
42866;SDS011;39461;40.948;73.006;2023-04-24T00:37:01;5.95;;;1.65;;
42866;SDS011;39461;40.948;73.006;2023-04-24T00:39:33;5.30;;;1.90;;
42866;SDS011;39461;40.948;73.006;2023-04-24T00:42:06;5.10;;;1.20;;
42866;SDS011;39461;40.948;73.006;2023-04-24T00:44:40;6.32;;;1.48;;
42866;SDS011;39461;40.948;73.006;2023-04-24T00:47:42;6.70;;;1.33;;
42866;SDS011;39461;40.948;73.006;2023-04-24T00:50:15;11.85;;;2.17;;
42866;SDS011;39461;40.948;73.006;2023-04-24T00:52:51;4.75;;;1.55;;
42866;SDS011;39461;40.948;73.006;2023-04-24T00:55:29;8.93;;;1.63;;
42866;SDS011;39461;40.948;73.006;2023-04-24T00:58:03;5.25;;;1.48;;
42866;SDS011;39461;40.948;73.006;2023-04-24T01:00:36;10.90;;;1.65;;
42866;SDS011;39461;40.948;73.006;2023-04-24T01:03:13;4.45;;;1.73;;
42866;SDS011;39461;40.948;73.006;2023-04-24T01:05:46;3.45;;;1.30;;
42866;SDS011;39461;40.948;73.006;2023-04-24T01:08:24;14.20;;;1.80;;
42866;SDS011;39461;40.948;73.006;2023-04-24T01:10:58;33.95;;;3.28;;
42866;SDS011;39461;40.948;73.006;2023-04-24T01:13:31;3.92;;;1.30;;
42866;SDS011;39461;40.948;73.006;2023-04-24T01:16:05;6.78;;;1.40;;
42866;SDS011;39461;40.948;73.006;2023-04-24T01:18:38;3.38;;;1.45;;
42866;SDS011;39461;40.948;73.006;2023-04-24T01:21:19;5.95;;;1.92;;
42866;SDS011;39461;40.948;73.006;2023-04-24T01:23:53;11.50;;;1.90;;
42866;SDS011;39461;40.948;73.006;2023-04-24T01:26:27;6.38;;;1.65;;
42866;SDS011;39461;40.948;73.006;2023-04-24T01:29:00;7.55;;;1.80;;
42866;SDS011;39461;40.948;73.006;2023-04-24T01:31:35;5.82;;;1.90;;
42866;SDS011;39461;40.948;73.006;2023-04-24T01:34:09;4.93;;;2.28;;
42866;SDS011;39461;40.948;73.006;2023-04-24T01:36:43;8.05;;;2.00;;
42866;SDS011;39461;40.948;73.006;2023-04-24T01:39:18;12.40;;;2.47;;
42866;SDS011;39461;40.948;73.006;2023-04-24T01:41:52;16.42;;;2.15;;
42866;SDS011;39461;40.948;73.006;2023-04-24T01:44:25;4.85;;;2.17;;
42866;SDS011;39461;40.948;73.006;2023-04-24T01:47:00;4.68;;;1.88;;
42866;SDS011;39461;40.948;73.006;2023-04-24T01:49:33;5.05;;;2.08;;
42866;SDS011;39461;40.948;73.006;2023-04-24T01:52:06;14.00;;;2.55;;
42866;SDS011;39461;40.948;73.006;2023-04-24T01:54:39;5.22;;;1.73;;
42866;SDS011;39461;40.948;73.006;2023-04-24T01:57:12;8.65;;;1.77;;
42866;SDS011;39461;40.948;73.006;2023-04-24T01:59:46;6.10;;;1.52;;
42866;SDS011;39461;40.948;73.006;2023-04-24T02:02:21;9.05;;;1.85;;
42866;SDS011;39461;40.948;73.006;2023-04-24T02:04:55;7.22;;;1.90;;
42866;SDS011;39461;40.948;73.006;2023-04-24T02:07:29;6.15;;;2.28;;
42866;SDS011;39461;40.948;73.006;2023-04-24T02:10:02;8.90;;;1.85;;
42866;SDS011;39461;40.948;73.006;2023-04-24T02:12:36;9.60;;;2.00;;
42866;SDS011;39461;40.948;73.006;2023-04-24T02:15:09;6.78;;;1.88;;
42866;SDS011;39461;40.948;73.006;2023-04-24T02:17:43;9.60;;;1.88;;
42866;SDS011;39461;40.948;73.006;2023-04-24T02:20:16;8.48;;;2.05;;
42866;SDS011;39461;40.948;73.006;2023-04-24T02:22:55;11.57;;;1.80;;
42866;SDS011;39461;40.948;73.006;2023-04-24T02:25:31;7.30;;;2.30;;
42866;SDS011;39461;40.948;73.006;2023-04-24T02:27:58;6.05;;;2.30;;
42866;SDS011;39461;40.948;73.006;2023-04-24T02:30:33;12.88;;;2.00;;
42866;SDS011;39461;40.948;73.006;2023-04-24T02:33:06;11.40;;;2.00;;
42866;SDS011;39461;40.948;73.006;2023-04-24T02:35:39;7.03;;;2.30;;
42866;SDS011;39461;40.948;73.006;2023-04-24T02:38:16;8.38;;;2.20;;
42866;SDS011;39461;40.948;73.006;2023-04-24T02:40:48;10.35;;;2.80;;
42866;SDS011;39461;40.948;73.006;2023-04-24T02:43:22;8.10;;;2.53;;
42866;SDS011;39461;40.948;73.006;2023-04-24T02:45:55;9.63;;;3.10;;
42866;SDS011;39461;40.948;73.006;2023-04-24T02:48:30;12.73;;;2.83;;
42866;SDS011;39461;40.948;73.006;2023-04-24T02:51:05;14.68;;;2.50;;
42866;SDS011;39461;40.948;73.006;2023-04-24T02:53:45;10.10;;;2.60;;
42866;SDS011;39461;40.948;73.006;2023-04-24T02:56:20;11.80;;;2.78;;
42866;SDS011;39461;40.948;73.006;2023-04-24T02:58:55;9.40;;;2.45;;
42866;SDS011;39461;40.948;73.006;2023-04-24T03:01:24;4.30;;;1.90;;
42866;SDS011;39461;40.948;73.006;2023-04-24T03:03:59;8.07;;;2.35;;
42866;SDS011;39461;40.948;73.006;2023-04-24T03:06:32;11.00;;;2.92;;
42866;SDS011;39461;40.948;73.006;2023-04-24T03:09:07;14.60;;;3.05;;
42866;SDS011;39461;40.948;73.006;2023-04-24T03:11:47;11.55;;;4.07;;
42866;SDS011;39461;40.948;73.006;2023-04-24T03:14:24;15.27;;;4.93;;
42866;SDS011;39461;40.948;73.006;2023-04-24T03:17:06;16.45;;;4.43;;
42866;SDS011;39461;40.948;73.006;2023-04-24T03:19:41;18.45;;;6.43;;
42866;SDS011;39461;40.948;73.006;2023-04-24T03:22:14;11.07;;;3.53;;
42866;SDS011;39461;40.948;73.006;2023-04-24T03:24:47;9.65;;;3.78;;
42866;SDS011;39461;40.948;73.006;2023-04-24T03:27:22;12.05;;;3.63;;
42866;SDS011;39461;40.948;73.006;2023-04-24T03:29:57;9.77;;;3.30;;
42866;SDS011;39461;40.948;73.006;2023-04-24T03:32:30;12.00;;;2.78;;
42866;SDS011;39461;40.948;73.006;2023-04-24T03:35:09;12.27;;;3.00;;
42866;SDS011;39461;40.948;73.006;2023-04-24T03:37:42;8.98;;;2.70;;
42866;SDS011;39461;40.948;73.006;2023-04-24T03:40:16;17.20;;;3.45;;
42866;SDS011;39461;40.948;73.006;2023-04-24T03:42:49;7.20;;;2.80;;
42866;SDS011;39461;40.948;73.006;2023-04-24T03:45:24;12.07;;;3.10;;
42866;SDS011;39461;40.948;73.006;2023-04-24T03:47:58;5.88;;;2.80;;
42866;SDS011;39461;40.948;73.006;2023-04-24T03:50:33;10.38;;;2.33;;
42866;SDS011;39461;40.948;73.006;2023-04-24T03:53:08;6.53;;;2.13;;
42866;SDS011;39461;40.948;73.006;2023-04-24T03:55:46;54.55;;;44.60;;
42866;SDS011;39461;40.948;73.006;2023-04-24T03:58:13;12.80;;;6.00;;
42866;SDS011;39461;40.948;73.006;2023-04-24T04:00:48;29.23;;;2.92;;
42866;SDS011;39461;40.948;73.006;2023-04-24T04:03:23;10.05;;;1.92;;
42866;SDS011;39461;40.948;73.006;2023-04-24T04:05:57;5.80;;;2.55;;
42866;SDS011;39461;40.948;73.006;2023-04-24T04:08:32;9.35;;;3.20;;
42866;SDS011;39461;40.948;73.006;2023-04-24T04:11:05;9.13;;;2.60;;
42866;SDS011;39461;40.948;73.006;2023-04-24T04:13:40;9.18;;;2.53;;
42866;SDS011;39461;40.948;73.006;2023-04-24T04:16:15;8.40;;;2.17;;
42866;SDS011;39461;40.948;73.006;2023-04-24T04:18:49;4.90;;;1.83;;
42866;SDS011;39461;40.948;73.006;2023-04-24T04:21:22;5.82;;;1.40;;
42866;SDS011;39461;40.948;73.006;2023-04-24T04:23:57;5.97;;;2.08;;
42866;SDS011;39461;40.948;73.006;2023-04-24T04:26:34;6.85;;;2.35;;
42866;SDS011;39461;40.948;73.006;2023-04-24T04:29:09;8.30;;;1.90;;
42866;SDS011;39461;40.948;73.006;2023-04-24T04:31:44;4.63;;;1.73;;
42866;SDS011;39461;40.948;73.006;2023-04-24T04:34:19;6.63;;;2.10;;
42866;SDS011;39461;40.948;73.006;2023-04-24T04:36:53;4.55;;;1.65;;
42866;SDS011;39461;40.948;73.006;2023-04-24T04:39:20;3.97;;;1.88;;
42866;SDS011;39461;40.948;73.006;2023-04-24T04:41:53;6.63;;;1.85;;
42866;SDS011;39461;40.948;73.006;2023-04-24T04:44:28;4.95;;;2.05;;
42866;SDS011;39461;40.948;73.006;2023-04-24T04:47:02;9.25;;;1.90;;
42866;SDS011;39461;40.948;73.006;2023-04-24T04:49:37;5.63;;;2.20;;
42866;SDS011;39461;40.948;73.006;2023-04-24T04:52:13;8.00;;;2.20;;
42866;SDS011;39461;40.948;73.006;2023-04-24T04:54:47;8.18;;;2.65;;
42866;SDS011;39461;40.948;73.006;2023-04-24T04:57:22;11.15;;;2.60;;
42866;SDS011;39461;40.948;73.006;2023-04-24T04:59:57;9.77;;;3.03;;
42866;SDS011;39461;40.948;73.006;2023-04-24T05:02:30;9.05;;;3.03;;
42866;SDS011;39461;40.948;73.006;2023-04-24T05:05:09;6.95;;;2.30;;
42866;SDS011;39461;40.948;73.006;2023-04-24T05:07:43;16.52;;;3.70;;
42866;SDS011;39461;40.948;73.006;2023-04-24T05:10:18;7.07;;;3.40;;
42866;SDS011;39461;40.948;73.006;2023-04-24T05:12:53;8.90;;;3.33;;
42866;SDS011;39461;40.948;73.006;2023-04-24T05:15:28;27.23;;;3.72;;
42866;SDS011;39461;40.948;73.006;2023-04-24T05:18:02;5.78;;;1.90;;
42866;SDS011;39461;40.948;73.006;2023-04-24T05:20:37;7.35;;;2.05;;
42866;SDS011;39461;40.948;73.006;2023-04-24T05:23:17;8.60;;;2.20;;
42866;SDS011;39461;40.948;73.006;2023-04-24T05:25:56;5.82;;;2.28;;
42866;SDS011;39461;40.948;73.006;2023-04-24T05:28:29;13.70;;;5.90;;
42866;SDS011;39461;40.948;73.006;2023-04-24T05:31:04;7.95;;;2.13;;
42866;SDS011;39461;40.948;73.006;2023-04-24T05:33:40;5.80;;;2.17;;
42866;SDS011;39461;40.948;73.006;2023-04-24T05:36:15;6.05;;;2.00;;
42866;SDS011;39461;40.948;73.006;2023-04-24T05:38:50;8.30;;;2.58;;
42866;SDS011;39461;40.948;73.006;2023-04-24T05:41:26;6.07;;;2.10;;
42866;SDS011;39461;40.948;73.006;2023-04-24T05:44:00;8.05;;;2.50;;
42866;SDS011;39461;40.948;73.006;2023-04-24T05:46:35;13.70;;;6.00;;
42866;SDS011;39461;40.948;73.006;2023-04-24T05:49:12;9.30;;;3.40;;
42866;SDS011;39461;40.948;73.006;2023-04-24T05:51:46;7.13;;;4.53;;
42866;SDS011;39461;40.948;73.006;2023-04-24T05:54:21;10.15;;;3.47;;
42866;SDS011;39461;40.948;73.006;2023-04-24T05:56:54;16.75;;;7.38;;
42866;SDS011;39461;40.948;73.006;2023-04-24T05:59:29;19.70;;;10.18;;
42866;SDS011;39461;40.948;73.006;2023-04-24T06:02:04;14.32;;;5.00;;
42866;SDS011;39461;40.948;73.006;2023-04-24T06:04:40;10.18;;;4.15;;
42866;SDS011;39461;40.948;73.006;2023-04-24T06:07:13;19.23;;;4.40;;
42866;SDS011;39461;40.948;73.006;2023-04-24T06:09:46;15.48;;;4.18;;
42866;SDS011;39461;40.948;73.006;2023-04-24T06:12:19;13.77;;;3.63;;
42866;SDS011;39461;40.948;73.006;2023-04-24T06:14:52;16.88;;;5.03;;
42866;SDS011;39461;40.948;73.006;2023-04-24T06:20:28;13.45;;;4.20;;
42866;SDS011;39461;40.948;73.006;2023-04-24T06:23:03;7.97;;;3.80;;
42866;SDS011;39461;40.948;73.006;2023-04-24T06:25:38;10.85;;;4.05;;
42866;SDS011;39461;40.948;73.006;2023-04-24T06:28:13;10.15;;;3.92;;
42866;SDS011;39461;40.948;73.006;2023-04-24T06:30:46;14.00;;;4.55;;
42866;SDS011;39461;40.948;73.006;2023-04-24T06:33:20;7.07;;;3.85;;
42866;SDS011;39461;40.948;73.006;2023-04-24T06:35:52;10.30;;;4.03;;
42866;SDS011;39461;40.948;73.006;2023-04-24T06:38:20;12.38;;;4.63;;
42866;SDS011;39461;40.948;73.006;2023-04-24T06:40:51;11.20;;;4.82;;
42866;SDS011;39461;40.948;73.006;2023-04-24T06:43:24;11.65;;;4.78;;
42866;SDS011;39461;40.948;73.006;2023-04-24T06:45:59;14.98;;;4.68;;
42866;SDS011;39461;40.948;73.006;2023-04-24T06:48:35;11.75;;;4.95;;
42866;SDS011;39461;40.948;73.006;2023-04-24T06:51:10;10.90;;;5.38;;
42866;SDS011;39461;40.948;73.006;2023-04-24T06:53:43;11.75;;;4.97;;
42866;SDS011;39461;40.948;73.006;2023-04-24T06:56:19;16.50;;;4.75;;
42866;SDS011;39461;40.948;73.006;2023-04-24T06:58:53;11.45;;;5.28;;
42866;SDS011;39461;40.948;73.006;2023-04-24T07:01:31;12.00;;;4.63;;
42866;SDS011;39461;40.948;73.006;2023-04-24T07:04:05;15.35;;;5.10;;
42866;SDS011;39461;40.948;73.006;2023-04-24T07:06:39;12.27;;;4.78;;
42866;SDS011;39461;40.948;73.006;2023-04-24T07:09:12;20.13;;;5.47;;
42866;SDS011;39461;40.948;73.006;2023-04-24T07:11:45;9.70;;;4.97;;
42866;SDS011;39461;40.948;73.006;2023-04-24T07:14:21;10.77;;;5.05;;
42866;SDS011;39461;40.948;73.006;2023-04-24T07:16:54;11.48;;;5.32;;
42866;SDS011;39461;40.948;73.006;2023-04-24T07:19:30;14.23;;;4.53;;
42866;SDS011;39461;40.948;73.006;2023-04-24T07:22:05;13.70;;;4.53;;
42866;SDS011;39461;40.948;73.006;2023-04-24T07:24:39;11.75;;;4.93;;
42866;SDS011;39461;40.948;73.006;2023-04-24T07:27:12;11.95;;;5.70;;
42866;SDS011;39461;40.948;73.006;2023-04-24T07:29:47;14.82;;;5.25;;
42866;SDS011;39461;40.948;73.006;2023-04-24T07:32:22;12.40;;;4.95;;
42866;SDS011;39461;40.948;73.006;2023-04-24T07:34:55;15.07;;;5.63;;
42866;SDS011;39461;40.948;73.006;2023-04-24T07:37:28;12.15;;;5.07;;
42866;SDS011;39461;40.948;73.006;2023-04-24T07:40:04;13.63;;;5.10;;
42866;SDS011;39461;40.948;73.006;2023-04-24T07:42:39;11.13;;;5.13;;
42866;SDS011;39461;40.948;73.006;2023-04-24T07:45:15;11.75;;;6.07;;
42866;SDS011;39461;40.948;73.006;2023-04-24T07:47:50;10.82;;;4.80;;
42866;SDS011;39461;40.948;73.006;2023-04-24T07:50:27;18.45;;;5.10;;
42866;SDS011;39461;40.948;73.006;2023-04-24T07:53:03;15.77;;;4.55;;
42866;SDS011;39461;40.948;73.006;2023-04-24T07:55:38;10.20;;;5.15;;
42866;SDS011;39461;40.948;73.006;2023-04-24T07:58:13;13.52;;;5.28;;
42866;SDS011;39461;40.948;73.006;2023-04-24T08:00:47;14.75;;;4.93;;
42866;SDS011;39461;40.948;73.006;2023-04-24T08:03:22;8.40;;;4.72;;
42866;SDS011;39461;40.948;73.006;2023-04-24T08:05:56;14.60;;;4.88;;
42866;SDS011;39461;40.948;73.006;2023-04-24T08:08:29;12.90;;;4.78;;
42866;SDS011;39461;40.948;73.006;2023-04-24T08:14:03;12.75;;;4.50;;
42866;SDS011;39461;40.948;73.006;2023-04-24T08:16:38;13.60;;;4.78;;
42866;SDS011;39461;40.948;73.006;2023-04-24T08:19:11;9.73;;;3.92;;
42866;SDS011;39461;40.948;73.006;2023-04-24T08:21:44;19.52;;;7.15;;
42866;SDS011;39461;40.948;73.006;2023-04-24T08:24:11;13.07;;;4.82;;
42866;SDS011;39461;40.948;73.006;2023-04-24T08:26:44;12.45;;;4.13;;
42866;SDS011;39461;40.948;73.006;2023-04-24T08:29:17;18.33;;;6.22;;
42866;SDS011;39461;40.948;73.006;2023-04-24T08:31:51;8.80;;;4.32;;
42866;SDS011;39461;40.948;73.006;2023-04-24T08:34:20;11.40;;;4.40;;
42866;SDS011;39461;40.948;73.006;2023-04-24T08:36:52;15.23;;;4.25;;
42866;SDS011;39461;40.948;73.006;2023-04-24T08:39:21;107.90;;;96.18;;
42866;SDS011;39461;40.948;73.006;2023-04-24T08:41:57;13.43;;;7.00;;
42866;SDS011;39461;40.948;73.006;2023-04-24T08:44:39;10.77;;;4.65;;
42866;SDS011;39461;40.948;73.006;2023-04-24T08:47:06;12.90;;;4.80;;
42866;SDS011;39461;40.948;73.006;2023-04-24T08:49:36;10.35;;;4.40;;
42866;SDS011;39461;40.948;73.006;2023-04-24T08:52:12;11.35;;;4.63;;
42866;SDS011;39461;40.948;73.006;2023-04-24T08:54:46;10.60;;;4.75;;
42866;SDS011;39461;40.948;73.006;2023-04-24T08:57:20;15.00;;;4.82;;
42866;SDS011;39461;40.948;73.006;2023-04-24T08:59:53;10.23;;;4.30;;
42866;SDS011;39461;40.948;73.006;2023-04-24T09:02:32;15.75;;;5.07;;
42866;SDS011;39461;40.948;73.006;2023-04-24T09:05:06;9.30;;;4.00;;
42866;SDS011;39461;40.948;73.006;2023-04-24T09:07:41;7.65;;;4.15;;
42866;SDS011;39461;40.948;73.006;2023-04-24T09:10:16;13.07;;;3.85;;
42866;SDS011;39461;40.948;73.006;2023-04-24T09:12:51;8.20;;;4.00;;
42866;SDS011;39461;40.948;73.006;2023-04-24T09:15:25;9.05;;;4.50;;
42866;SDS011;39461;40.948;73.006;2023-04-24T09:18:00;8.63;;;3.60;;
42866;SDS011;39461;40.948;73.006;2023-04-24T09:20:33;9.95;;;3.67;;
42866;SDS011;39461;40.948;73.006;2023-04-24T09:23:09;13.75;;;4.40;;
42866;SDS011;39461;40.948;73.006;2023-04-24T09:25:41;22.25;;;4.25;;
42866;SDS011;39461;40.948;73.006;2023-04-24T09:28:18;14.73;;;4.25;;
42866;SDS011;39461;40.948;73.006;2023-04-24T09:31:03;11.02;;;3.15;;
42866;SDS011;39461;40.948;73.006;2023-04-24T09:33:36;14.15;;;3.33;;
42866;SDS011;39461;40.948;73.006;2023-04-24T09:36:14;10.57;;;3.58;;
42866;SDS011;39461;40.948;73.006;2023-04-24T09:38:50;30.92;;;4.40;;
42866;SDS011;39461;40.948;73.006;2023-04-24T09:41:29;11.32;;;3.58;;
42866;SDS011;39461;40.948;73.006;2023-04-24T09:44:11;10.63;;;3.80;;
42866;SDS011;39461;40.948;73.006;2023-04-24T09:46:51;13.10;;;2.97;;
42866;SDS011;39461;40.948;73.006;2023-04-24T09:49:27;8.32;;;2.88;;
42866;SDS011;39461;40.948;73.006;2023-04-24T09:52:04;24.38;;;17.90;;
42866;SDS011;39461;40.948;73.006;2023-04-24T09:54:37;14.52;;;7.28;;
42866;SDS011;39461;40.948;73.006;2023-04-24T09:57:14;16.23;;;5.32;;
42866;SDS011;39461;40.948;73.006;2023-04-24T09:59:47;13.45;;;4.10;;
42866;SDS011;39461;40.948;73.006;2023-04-24T10:02:20;10.25;;;4.13;;
42866;SDS011;39461;40.948;73.006;2023-04-24T10:04:55;11.85;;;5.65;;
42866;SDS011;39461;40.948;73.006;2023-04-24T10:07:32;10.07;;;4.57;;
42866;SDS011;39461;40.948;73.006;2023-04-24T10:10:06;14.13;;;4.03;;
42866;SDS011;39461;40.948;73.006;2023-04-24T10:12:41;7.75;;;3.28;;
42866;SDS011;39461;40.948;73.006;2023-04-24T10:15:16;36.95;;;29.88;;
42866;SDS011;39461;40.948;73.006;2023-04-24T10:17:53;13.15;;;6.70;;
42866;SDS011;39461;40.948;73.006;2023-04-24T10:20:27;8.55;;;2.90;;
42866;SDS011;39461;40.948;73.006;2023-04-24T10:23:03;6.35;;;2.75;;
42866;SDS011;39461;40.948;73.006;2023-04-24T10:25:40;13.02;;;3.20;;
42866;SDS011;39461;40.948;73.006;2023-04-24T10:28:15;6.68;;;2.35;;
42866;SDS011;39461;40.948;73.006;2023-04-24T10:30:51;5.88;;;2.35;;
42866;SDS011;39461;40.948;73.006;2023-04-24T10:33:27;10.65;;;2.70;;
42866;SDS011;39461;40.948;73.006;2023-04-24T10:36:00;9.13;;;2.30;;
42866;SDS011;39461;40.948;73.006;2023-04-24T10:38:29;5.40;;;2.55;;
42866;SDS011;39461;40.948;73.006;2023-04-24T10:41:08;14.02;;;4.30;;
42866;SDS011;39461;40.948;73.006;2023-04-24T10:43:44;9.52;;;3.42;;
42866;SDS011;39461;40.948;73.006;2023-04-24T10:46:19;14.88;;;4.68;;
42866;SDS011;39461;40.948;73.006;2023-04-24T10:48:57;17.45;;;6.20;;
42866;SDS011;39461;40.948;73.006;2023-04-24T10:51:44;12.23;;;4.75;;
42866;SDS011;39461;40.948;73.006;2023-04-24T11:00:11;11.85;;;3.10;;
42866;SDS011;39461;40.948;73.006;2023-04-24T11:02:48;16.85;;;3.47;;
42866;SDS011;39461;40.948;73.006;2023-04-24T11:05:18;12.80;;;3.40;;
42866;SDS011;39461;40.948;73.006;2023-04-24T11:08:14;12.55;;;3.45;;
42866;SDS011;39461;40.948;73.006;2023-04-24T11:16:36;11.73;;;3.70;;
42866;SDS011;39461;40.948;73.006;2023-04-24T11:29:42;14.60;;;4.30;;
42866;SDS011;39461;40.948;73.006;2023-04-24T11:32:28;15.52;;;4.65;;
42866;SDS011;39461;40.948;73.006;2023-04-24T11:37:39;19.55;;;7.25;;
42866;SDS011;39461;40.948;73.006;2023-04-24T11:40:13;11.13;;;4.50;;
42866;SDS011;39461;40.948;73.006;2023-04-24T11:42:53;10.55;;;5.03;;
42866;SDS011;39461;40.948;73.006;2023-04-24T11:45:33;14.90;;;5.30;;
42866;SDS011;39461;40.948;73.006;2023-04-24T11:48:08;20.00;;;6.55;;
42866;SDS011;39461;40.948;73.006;2023-04-24T11:50:45;11.35;;;5.60;;
42866;SDS011;39461;40.948;73.006;2023-04-24T11:53:22;17.33;;;6.15;;
42866;SDS011;39461;40.948;73.006;2023-04-24T11:55:55;14.27;;;6.70;;
42866;SDS011;39461;40.948;73.006;2023-04-24T11:58:35;17.98;;;5.70;;
42866;SDS011;39461;40.948;73.006;2023-04-24T12:01:10;13.30;;;5.53;;
42866;SDS011;39461;40.948;73.006;2023-04-24T12:03:49;22.05;;;6.88;;
42866;SDS011;39461;40.948;73.006;2023-04-24T12:06:25;17.80;;;5.55;;
42866;SDS011;39461;40.948;73.006;2023-04-24T12:09:00;19.38;;;5.53;;
42866;SDS011;39461;40.948;73.006;2023-04-24T12:11:36;25.42;;;5.57;;
42866;SDS011;39461;40.948;73.006;2023-04-24T12:14:11;11.10;;;4.53;;
42866;SDS011;39461;40.948;73.006;2023-04-24T12:16:47;17.42;;;4.88;;
42866;SDS011;39461;40.948;73.006;2023-04-24T12:19:23;14.55;;;4.78;;
42866;SDS011;39461;40.948;73.006;2023-04-24T12:21:59;18.25;;;6.28;;
42866;SDS011;39461;40.948;73.006;2023-04-24T12:24:35;17.60;;;5.45;;
42866;SDS011;39461;40.948;73.006;2023-04-24T12:27:18;21.10;;;6.20;;
42866;SDS011;39461;40.948;73.006;2023-04-24T12:29:55;20.75;;;5.70;;
42866;SDS011;39461;40.948;73.006;2023-04-24T12:32:28;14.23;;;5.85;;
42866;SDS011;39461;40.948;73.006;2023-04-24T12:35:04;18.10;;;6.30;;
42866;SDS011;39461;40.948;73.006;2023-04-24T12:37:36;18.90;;;6.22;;
42866;SDS011;39461;40.948;73.006;2023-04-24T12:40:08;19.50;;;7.13;;
42866;SDS011;39461;40.948;73.006;2023-04-24T12:42:42;14.70;;;6.43;;
42866;SDS011;39461;40.948;73.006;2023-04-24T12:45:17;21.17;;;7.10;;
42866;SDS011;39461;40.948;73.006;2023-04-24T12:47:50;18.20;;;7.63;;
42866;SDS011;39461;40.948;73.006;2023-04-24T12:50:23;19.58;;;8.18;;
42866;SDS011;39461;40.948;73.006;2023-04-24T12:52:59;16.88;;;7.53;;
42866;SDS011;39461;40.948;73.006;2023-04-24T12:58:32;24.30;;;8.50;;
42866;SDS011;39461;40.948;73.006;2023-04-24T13:01:05;16.40;;;7.32;;
42866;SDS011;39461;40.948;73.006;2023-04-24T13:03:41;19.75;;;7.30;;
42866;SDS011;39461;40.948;73.006;2023-04-24T13:06:17;21.63;;;7.90;;
42866;SDS011;39461;40.948;73.006;2023-04-24T13:08:50;19.17;;;7.72;;
42866;SDS011;39461;40.948;73.006;2023-04-24T13:11:23;25.15;;;8.13;;
42866;SDS011;39461;40.948;73.006;2023-04-24T13:13:57;18.85;;;7.93;;
42866;SDS011;39461;40.948;73.006;2023-04-24T13:16:30;35.35;;;8.68;;
42866;SDS011;39461;40.948;73.006;2023-04-24T13:19:05;34.72;;;9.05;;
42866;SDS011;39461;40.948;73.006;2023-04-24T13:21:40;16.77;;;7.68;;
42866;SDS011;39461;40.948;73.006;2023-04-24T13:24:15;20.88;;;7.70;;
42866;SDS011;39461;40.948;73.006;2023-04-24T13:26:50;33.45;;;9.68;;
42866;SDS011;39461;40.948;73.006;2023-04-24T13:29:30;27.38;;;8.65;;
42866;SDS011;39461;40.948;73.006;2023-04-24T13:32:03;60.92;;;26.70;;
42866;SDS011;39461;40.948;73.006;2023-04-24T13:34:37;26.30;;;10.05;;
42866;SDS011;39461;40.948;73.006;2023-04-24T13:37:10;20.17;;;9.68;;
42866;SDS011;39461;40.948;73.006;2023-04-24T13:39:43;35.38;;;11.13;;
42866;SDS011;39461;40.948;73.006;2023-04-24T13:42:18;25.48;;;12.35;;
42866;SDS011;39461;40.948;73.006;2023-04-24T13:44:51;37.55;;;14.80;;
42866;SDS011;39461;40.948;73.006;2023-04-24T13:47:27;27.98;;;12.75;;
42866;SDS011;39461;40.948;73.006;2023-04-24T13:50:00;30.85;;;12.30;;
42866;SDS011;39461;40.948;73.006;2023-04-24T13:52:34;22.17;;;10.80;;
42866;SDS011;39461;40.948;73.006;2023-04-24T13:55:07;27.02;;;12.50;;
42866;SDS011;39461;40.948;73.006;2023-04-24T13:57:40;37.67;;;12.20;;
42866;SDS011;39461;40.948;73.006;2023-04-24T14:00:15;34.08;;;11.50;;
42866;SDS011;39461;40.948;73.006;2023-04-24T14:02:53;48.35;;;22.00;;
42866;SDS011;39461;40.948;73.006;2023-04-24T14:05:28;38.78;;;17.33;;
42866;SDS011;39461;40.948;73.006;2023-04-24T14:08:04;42.45;;;20.70;;
42866;SDS011;39461;40.948;73.006;2023-04-24T14:10:37;34.25;;;13.02;;
42866;SDS011;39461;40.948;73.006;2023-04-24T14:13:15;27.42;;;11.90;;
42866;SDS011;39461;40.948;73.006;2023-04-24T14:15:51;25.70;;;11.80;;
42866;SDS011;39461;40.948;73.006;2023-04-24T14:18:24;25.92;;;9.30;;
42866;SDS011;39461;40.948;73.006;2023-04-24T14:20:58;23.83;;;8.52;;
42866;SDS011;39461;40.948;73.006;2023-04-24T14:23:39;24.50;;;11.27;;
42866;SDS011;39461;40.948;73.006;2023-04-24T14:26:18;27.08;;;13.30;;
42866;SDS011;39461;40.948;73.006;2023-04-24T14:28:52;32.63;;;12.02;;
42866;SDS011;39461;40.948;73.006;2023-04-24T14:31:28;25.02;;;11.88;;
42866;SDS011;39461;40.948;73.006;2023-04-24T14:34:02;28.35;;;9.55;;
42866;SDS011;39461;40.948;73.006;2023-04-24T14:36:35;29.98;;;11.35;;
42866;SDS011;39461;40.948;73.006;2023-04-24T14:39:02;34.15;;;14.88;;
42866;SDS011;39461;40.948;73.006;2023-04-24T14:41:32;47.65;;;23.70;;
42866;SDS011;39461;40.948;73.006;2023-04-24T14:44:11;76.53;;;36.72;;
42866;SDS011;39461;40.948;73.006;2023-04-24T14:46:46;86.38;;;43.63;;
42866;SDS011;39461;40.948;73.006;2023-04-24T14:49:21;78.25;;;43.38;;
42866;SDS011;39461;40.948;73.006;2023-04-24T14:51:54;73.10;;;41.88;;
42866;SDS011;39461;40.948;73.006;2023-04-24T14:54:28;61.05;;;34.75;;
42866;SDS011;39461;40.948;73.006;2023-04-24T14:57:02;59.78;;;30.63;;
42866;SDS011;39461;40.948;73.006;2023-04-24T14:59:38;50.10;;;29.77;;
42866;SDS011;39461;40.948;73.006;2023-04-24T15:02:12;55.70;;;30.45;;
42866;SDS011;39461;40.948;73.006;2023-04-24T15:04:45;76.32;;;39.90;;
42866;SDS011;39461;40.948;73.006;2023-04-24T15:07:18;78.88;;;33.88;;
42866;SDS011;39461;40.948;73.006;2023-04-24T15:09:51;79.82;;;43.65;;
42866;SDS011;39461;40.948;73.006;2023-04-24T15:12:25;80.15;;;44.50;;
42866;SDS011;39461;40.948;73.006;2023-04-24T15:17:58;119.82;;;78.53;;
42866;SDS011;39461;40.948;73.006;2023-04-24T15:20:38;107.47;;;53.05;;
42866;SDS011;39461;40.948;73.006;2023-04-24T15:23:10;92.50;;;47.75;;
42866;SDS011;39461;40.948;73.006;2023-04-24T15:25:47;83.70;;;44.80;;
42866;SDS011;39461;40.948;73.006;2023-04-24T15:28:24;74.95;;;44.25;;
42866;SDS011;39461;40.948;73.006;2023-04-24T15:30:59;99.95;;;44.55;;
42866;SDS011;39461;40.948;73.006;2023-04-24T15:33:36;64.60;;;33.15;;
42866;SDS011;39461;40.948;73.006;2023-04-24T15:36:11;79.03;;;37.47;;
42866;SDS011;39461;40.948;73.006;2023-04-24T15:38:44;80.47;;;40.15;;
42866;SDS011;39461;40.948;73.006;2023-04-24T15:41:18;68.80;;;32.20;;
42866;SDS011;39461;40.948;73.006;2023-04-24T15:43:52;64.22;;;32.92;;